sensor_id;sensor_type;location;lat;lon;timestamp;pressure;altitude;pressure_sealevel;temperature;humidity
46392;BME280;32098;49.448;7.904;2023-07-13T00:00:13;98150.19;;;15.38;62.65
46392;BME280;32098;49.448;7.904;2023-07-13T00:02:42;98156.84;;;15.25;63.13
46392;BME280;32098;49.448;7.904;2023-07-13T00:05:09;98159.56;;;15.30;62.71
46392;BME280;32098;49.448;7.904;2023-07-13T00:07:36;98154.19;;;15.35;62.58
46392;BME280;32098;49.448;7.904;2023-07-13T00:10:03;98168.72;;;15.34;62.51
46392;BME280;32098;49.448;7.904;2023-07-13T00:12:33;98163.09;;;15.36;62.58
46392;BME280;32098;49.448;7.904;2023-07-13T00:15:03;98160.69;;;15.44;62.31
46392;BME280;32098;49.448;7.904;2023-07-13T00:17:30;98154.22;;;15.40;61.90
46392;BME280;32098;49.448;7.904;2023-07-13T00:19:57;98165.78;;;15.36;62.46
46392;BME280;32098;49.448;7.904;2023-07-13T00:22:25;98170.88;;;15.37;62.24
46392;BME280;32098;49.448;7.904;2023-07-13T00:24:54;98174.09;;;15.34;62.25
46392;BME280;32098;49.448;7.904;2023-07-13T00:27:24;98167.66;;;15.35;62.38
46392;BME280;32098;49.448;7.904;2023-07-13T00:29:56;98160.47;;;15.04;63.47
46392;BME280;32098;49.448;7.904;2023-07-13T00:32:23;98168.22;;;14.96;63.81
46392;BME280;32098;49.448;7.904;2023-07-13T00:34:52;98166.09;;;14.61;65.71
46392;BME280;32098;49.448;7.904;2023-07-13T00:37:18;98171.47;;;14.61;65.97
46392;BME280;32098;49.448;7.904;2023-07-13T00:39:45;98174.91;;;14.56;65.79
46392;BME280;32098;49.448;7.904;2023-07-13T00:42:12;98166.78;;;14.24;66.23
46392;BME280;32098;49.448;7.904;2023-07-13T00:44:39;98180.13;;;14.14;66.58
46392;BME280;32098;49.448;7.904;2023-07-13T00:47:06;98181.09;;;14.03;67.06
46392;BME280;32098;49.448;7.904;2023-07-13T00:49:34;98190.75;;;14.04;67.82
46392;BME280;32098;49.448;7.904;2023-07-13T00:52:05;98183.91;;;14.13;66.32
46392;BME280;32098;49.448;7.904;2023-07-13T00:54:39;98190.97;;;14.24;66.74
46392;BME280;32098;49.448;7.904;2023-07-13T00:57:09;98194.25;;;14.31;66.14
46392;BME280;32098;49.448;7.904;2023-07-13T00:59:41;98190.13;;;14.46;65.97
46392;BME280;32098;49.448;7.904;2023-07-13T01:02:09;98178.00;;;14.43;65.90
46392;BME280;32098;49.448;7.904;2023-07-13T01:04:36;98179.31;;;14.41;65.80
46392;BME280;32098;49.448;7.904;2023-07-13T01:07:03;98175.63;;;14.20;66.03
46392;BME280;32098;49.448;7.904;2023-07-13T01:09:30;98186.16;;;14.26;65.39
46392;BME280;32098;49.448;7.904;2023-07-13T01:11:56;98177.81;;;14.23;65.35
46392;BME280;32098;49.448;7.904;2023-07-13T01:14:23;98187.22;;;14.25;65.44
46392;BME280;32098;49.448;7.904;2023-07-13T01:16:50;98186.66;;;14.23;64.87
46392;BME280;32098;49.448;7.904;2023-07-13T01:19:29;98191.25;;;14.23;64.54
46392;BME280;32098;49.448;7.904;2023-07-13T01:22:05;98190.47;;;13.79;66.79
46392;BME280;32098;49.448;7.904;2023-07-13T01:24:36;98194.59;;;13.87;67.38
46392;BME280;32098;49.448;7.904;2023-07-13T01:27:03;98203.25;;;13.50;69.04
46392;BME280;32098;49.448;7.904;2023-07-13T01:29:30;98201.97;;;13.53;67.43
46392;BME280;32098;49.448;7.904;2023-07-13T01:31:57;98194.56;;;13.43;67.01
46392;BME280;32098;49.448;7.904;2023-07-13T01:34:24;98190.56;;;13.46;67.46
46392;BME280;32098;49.448;7.904;2023-07-13T01:36:51;98197.78;;;13.62;66.61
46392;BME280;32098;49.448;7.904;2023-07-13T01:39:23;98183.13;;;13.70;66.53
46392;BME280;32098;49.448;7.904;2023-07-13T01:41:50;98192.88;;;13.76;66.50
46392;BME280;32098;49.448;7.904;2023-07-13T01:44:19;98188.06;;;13.78;66.96
46392;BME280;32098;49.448;7.904;2023-07-13T01:46:46;98197.72;;;13.57;68.71
46392;BME280;32098;49.448;7.904;2023-07-13T01:49:12;98197.06;;;13.50;68.57
46392;BME280;32098;49.448;7.904;2023-07-13T01:51:39;98194.81;;;13.42;69.37
46392;BME280;32098;49.448;7.904;2023-07-13T01:54:05;98188.81;;;13.35;69.75
46392;BME280;32098;49.448;7.904;2023-07-13T01:56:32;98199.00;;;13.33;69.15
46392;BME280;32098;49.448;7.904;2023-07-13T01:58:58;98193.72;;;13.21;69.85
46392;BME280;32098;49.448;7.904;2023-07-13T02:01:27;98196.38;;;13.38;69.38
46392;BME280;32098;49.448;7.904;2023-07-13T02:03:54;98193.22;;;13.24;69.93
46392;BME280;32098;49.448;7.904;2023-07-13T02:06:21;98198.38;;;13.26;70.21
46392;BME280;32098;49.448;7.904;2023-07-13T02:08:48;98194.75;;;13.37;69.34
46392;BME280;32098;49.448;7.904;2023-07-13T02:11:14;98200.91;;;13.16;71.08
46392;BME280;32098;49.448;7.904;2023-07-13T02:13:41;98197.63;;;13.14;71.80
46392;BME280;32098;49.448;7.904;2023-07-13T02:16:07;98193.91;;;13.15;70.41
46392;BME280;32098;49.448;7.904;2023-07-13T02:18:34;98198.16;;;13.11;70.58
46392;BME280;32098;49.448;7.904;2023-07-13T02:21:01;98205.59;;;13.09;70.55
46392;BME280;32098;49.448;7.904;2023-07-13T02:23:29;98200.59;;;12.95;71.27
46392;BME280;32098;49.448;7.904;2023-07-13T02:25:56;98193.44;;;12.84;71.32
46392;BME280;32098;49.448;7.904;2023-07-13T02:28:23;98199.25;;;13.15;70.17
46392;BME280;32098;49.448;7.904;2023-07-13T02:30:50;98200.22;;;13.25;69.83
46392;BME280;32098;49.448;7.904;2023-07-13T02:33:17;98199.56;;;13.35;69.46
46392;BME280;32098;49.448;7.904;2023-07-13T02:35:44;98198.88;;;13.44;68.88
46392;BME280;32098;49.448;7.904;2023-07-13T02:38:10;98202.97;;;13.30;69.66
46392;BME280;32098;49.448;7.904;2023-07-13T02:40:37;98202.50;;;13.17;70.44
46392;BME280;32098;49.448;7.904;2023-07-13T02:43:04;98202.69;;;13.10;71.21
46392;BME280;32098;49.448;7.904;2023-07-13T02:45:31;98200.31;;;13.14;71.15
46392;BME280;32098;49.448;7.904;2023-07-13T02:47:57;98197.63;;;13.14;71.88
46392;BME280;32098;49.448;7.904;2023-07-13T02:50:24;98206.19;;;13.11;71.98
46392;BME280;32098;49.448;7.904;2023-07-13T02:52:50;98203.31;;;13.17;72.25
46392;BME280;32098;49.448;7.904;2023-07-13T02:55:17;98199.13;;;13.04;73.29
46392;BME280;32098;49.448;7.904;2023-07-13T02:57:44;98190.75;;;13.01;73.50
46392;BME280;32098;49.448;7.904;2023-07-13T03:00:11;98190.03;;;13.06;73.17
46392;BME280;32098;49.448;7.904;2023-07-13T03:02:37;98189.44;;;13.03;73.76
46392;BME280;32098;49.448;7.904;2023-07-13T03:05:04;98190.03;;;13.06;73.82
46392;BME280;32098;49.448;7.904;2023-07-13T03:07:31;98191.06;;;13.04;73.53
46392;BME280;32098;49.448;7.904;2023-07-13T03:09:58;98192.44;;;13.07;73.81
46392;BME280;32098;49.448;7.904;2023-07-13T03:12:35;98190.34;;;13.09;73.33
46392;BME280;32098;49.448;7.904;2023-07-13T03:15:06;98201.09;;;12.92;74.00
46392;BME280;32098;49.448;7.904;2023-07-13T03:17:35;98197.84;;;12.90;73.73
46392;BME280;32098;49.448;7.904;2023-07-13T03:20:02;98207.91;;;12.83;74.51
46392;BME280;32098;49.448;7.904;2023-07-13T03:22:31;98204.16;;;12.84;73.88
46392;BME280;32098;49.448;7.904;2023-07-13T03:24:58;98215.72;;;12.85;74.22
46392;BME280;32098;49.448;7.904;2023-07-13T03:27:24;98212.38;;;12.78;74.06
46392;BME280;32098;49.448;7.904;2023-07-13T03:29:51;98206.69;;;12.74;73.98
46392;BME280;32098;49.448;7.904;2023-07-13T03:32:17;98207.91;;;12.83;73.81
46392;BME280;32098;49.448;7.904;2023-07-13T03:34:44;98202.53;;;13.00;72.93
46392;BME280;32098;49.448;7.904;2023-07-13T03:37:12;98202.50;;;13.17;72.38
46392;BME280;32098;49.448;7.904;2023-07-13T03:39:39;98215.13;;;12.99;72.57
46392;BME280;32098;49.448;7.904;2023-07-13T03:42:06;98217.31;;;13.02;72.88
46392;BME280;32098;49.448;7.904;2023-07-13T03:44:33;98208.72;;;13.00;72.23
46392;BME280;32098;49.448;7.904;2023-07-13T03:46:59;98212.25;;;13.06;71.70
46392;BME280;32098;49.448;7.904;2023-07-13T03:49:26;98224.38;;;13.09;71.49
46392;BME280;32098;49.448;7.904;2023-07-13T03:51:52;98226.25;;;12.91;71.63
46392;BME280;32098;49.448;7.904;2023-07-13T03:54:20;98220.66;;;12.76;72.91
46392;BME280;32098;49.448;7.904;2023-07-13T03:56:46;98220.88;;;12.58;73.74
46392;BME280;32098;49.448;7.904;2023-07-13T03:59:14;98218.44;;;12.57;74.17
46392;BME280;32098;49.448;7.904;2023-07-13T04:01:41;98224.16;;;12.60;74.07
46392;BME280;32098;49.448;7.904;2023-07-13T04:04:07;98215.50;;;12.58;73.90
46392;BME280;32098;49.448;7.904;2023-07-13T04:06:34;98224.06;;;12.55;73.62
46392;BME280;32098;49.448;7.904;2023-07-13T04:09:03;98222.75;;;12.74;72.73
46392;BME280;32098;49.448;7.904;2023-07-13T04:11:32;98213.66;;;12.92;71.84
46392;BME280;32098;49.448;7.904;2023-07-13T04:13:59;98217.31;;;13.02;70.62
46392;BME280;32098;49.448;7.904;2023-07-13T04:16:26;98215.28;;;13.10;70.86
46392;BME280;32098;49.448;7.904;2023-07-13T04:18:54;98222.25;;;13.27;70.57
46392;BME280;32098;49.448;7.904;2023-07-13T04:21:23;98217.69;;;13.66;69.39
46392;BME280;32098;49.448;7.904;2023-07-13T04:23:50;98222.16;;;14.04;68.54
46392;BME280;32098;49.448;7.904;2023-07-13T04:26:17;98220.56;;;14.29;67.44
46392;BME280;32098;49.448;7.904;2023-07-13T04:28:43;98223.41;;;14.45;65.94
46392;BME280;32098;49.448;7.904;2023-07-13T04:31:10;98229.25;;;14.37;66.46
46392;BME280;32098;49.448;7.904;2023-07-13T04:33:36;98237.16;;;14.48;65.88
46392;BME280;32098;49.448;7.904;2023-07-13T04:36:04;98235.34;;;14.54;65.46
46392;BME280;32098;49.448;7.904;2023-07-13T04:38:32;98236.97;;;14.55;65.38
46392;BME280;32098;49.448;7.904;2023-07-13T04:41:01;98230.69;;;14.71;64.83
46392;BME280;32098;49.448;7.904;2023-07-13T04:43:28;98243.72;;;14.57;65.81
46392;BME280;32098;49.448;7.904;2023-07-13T04:45:55;98238.47;;;15.04;65.29
46392;BME280;32098;49.448;7.904;2023-07-13T04:48:23;98244.69;;;15.46;63.35
46392;BME280;32098;49.448;7.904;2023-07-13T04:50:55;98245.31;;;15.53;63.85
46392;BME280;32098;49.448;7.904;2023-07-13T04:53:23;98250.88;;;15.99;62.23
46392;BME280;32098;49.448;7.904;2023-07-13T04:55:50;98249.44;;;16.38;61.44
46392;BME280;32098;49.448;7.904;2023-07-13T04:58:16;98240.56;;;16.63;59.33
46392;BME280;32098;49.448;7.904;2023-07-13T05:00:43;98251.09;;;16.95;58.56
46392;BME280;32098;49.448;7.904;2023-07-13T05:03:10;98250.56;;;17.08;57.53
46392;BME280;32098;49.448;7.904;2023-07-13T05:05:37;98258.66;;;17.13;57.86
46392;BME280;32098;49.448;7.904;2023-07-13T05:08:03;98266.50;;;17.24;57.43
46392;BME280;32098;49.448;7.904;2023-07-13T05:10:30;98260.03;;;17.40;56.18
46392;BME280;32098;49.448;7.904;2023-07-13T05:12:57;98262.41;;;17.52;55.26
46392;BME280;32098;49.448;7.904;2023-07-13T05:15:23;98265.69;;;17.54;55.27
46392;BME280;32098;49.448;7.904;2023-07-13T05:17:51;98269.97;;;17.60;55.23
46392;BME280;32098;49.448;7.904;2023-07-13T05:20:18;98261.91;;;17.35;56.04
46392;BME280;32098;49.448;7.904;2023-07-13T05:22:45;98274.31;;;16.96;58.03
46392;BME280;32098;49.448;7.904;2023-07-13T05:25:17;98268.94;;;17.01;58.06
46392;BME280;32098;49.448;7.904;2023-07-13T05:27:43;98273.78;;;17.44;57.69
46392;BME280;32098;49.448;7.904;2023-07-13T05:30:12;98275.06;;;17.67;55.98
46392;BME280;32098;49.448;7.904;2023-07-13T05:32:40;98273.38;;;18.06;56.27
46392;BME280;32098;49.448;7.904;2023-07-13T05:35:07;98271.16;;;18.62;54.03
46392;BME280;32098;49.448;7.904;2023-07-13T05:37:34;98250.50;;;18.86;52.79
46392;BME280;32098;49.448;7.904;2023-07-13T05:40:00;98268.88;;;19.52;52.25
46392;BME280;32098;49.448;7.904;2023-07-13T05:42:27;98268.56;;;19.82;51.72
46392;BME280;32098;49.448;7.904;2023-07-13T05:44:53;98271.78;;;20.08;51.13
46392;BME280;32098;49.448;7.904;2023-07-13T05:47:20;98274.97;;;20.33;49.62
46392;BME280;32098;49.448;7.904;2023-07-13T05:49:47;98275.91;;;20.47;49.88
46392;BME280;32098;49.448;7.904;2023-07-13T05:52:13;98281.94;;;20.63;49.32
46392;BME280;32098;49.448;7.904;2023-07-13T05:54:40;98282.75;;;20.82;48.54
46392;BME280;32098;49.448;7.904;2023-07-13T05:57:06;98282.13;;;21.04;47.59
46392;BME280;32098;49.448;7.904;2023-07-13T05:59:33;98285.88;;;21.40;47.56
46392;BME280;32098;49.448;7.904;2023-07-13T06:01:59;98283.94;;;21.59;46.99
46392;BME280;32098;49.448;7.904;2023-07-13T06:04:26;98287.66;;;21.63;46.44
46392;BME280;32098;49.448;7.904;2023-07-13T06:06:53;98287.22;;;21.89;46.72
46392;BME280;32098;49.448;7.904;2023-07-13T06:09:19;98288.22;;;22.20;46.54
46392;BME280;32098;49.448;7.904;2023-07-13T06:11:46;98279.97;;;22.25;46.04
46392;BME280;32098;49.448;7.904;2023-07-13T06:14:12;98296.56;;;22.37;45.42
46392;BME280;32098;49.448;7.904;2023-07-13T06:16:40;98290.22;;;22.55;44.58
46392;BME280;32098;49.448;7.904;2023-07-13T06:19:07;98296.66;;;22.59;44.19
46392;BME280;32098;49.448;7.904;2023-07-13T06:21:33;98296.00;;;22.76;44.93
46392;BME280;32098;49.448;7.904;2023-07-13T06:24:00;98257.03;;;22.53;44.35
46392;BME280;32098;49.448;7.904;2023-07-13T06:26:27;98302.72;;;22.92;43.64
46392;BME280;32098;49.448;7.904;2023-07-13T06:28:54;98304.28;;;23.06;43.53
46392;BME280;32098;49.448;7.904;2023-07-13T06:31:20;98297.09;;;22.88;43.78
46392;BME280;32098;49.448;7.904;2023-07-13T06:33:47;98307.50;;;23.22;43.27
46392;BME280;32098;49.448;7.904;2023-07-13T06:36:13;98313.00;;;23.53;42.36
46392;BME280;32098;49.448;7.904;2023-07-13T06:38:40;98305.31;;;23.86;42.21
46392;BME280;32098;49.448;7.904;2023-07-13T06:41:07;98310.34;;;23.92;41.33
46392;BME280;32098;49.448;7.904;2023-07-13T06:43:35;98305.44;;;24.11;40.84
46392;BME280;32098;49.448;7.904;2023-07-13T06:46:02;98310.59;;;24.13;40.12
46392;BME280;32098;49.448;7.904;2023-07-13T06:48:28;98310.03;;;23.71;40.78
46392;BME280;32098;49.448;7.904;2023-07-13T06:50:55;98317.94;;;23.51;41.42
46392;BME280;32098;49.448;7.904;2023-07-13T06:53:22;98327.06;;;23.10;41.80
46392;BME280;32098;49.448;7.904;2023-07-13T06:55:49;98324.25;;;23.16;42.17
46392;BME280;32098;49.448;7.904;2023-07-13T06:58:17;98327.88;;;23.25;41.49
46392;BME280;32098;49.448;7.904;2023-07-13T07:00:45;98323.16;;;23.39;40.84
46392;BME280;32098;49.448;7.904;2023-07-13T07:03:12;98322.59;;;23.50;41.20
46392;BME280;32098;49.448;7.904;2023-07-13T07:05:39;98324.28;;;23.68;40.49
46392;BME280;32098;49.448;7.904;2023-07-13T07:08:06;98324.66;;;24.06;38.35
46392;BME280;32098;49.448;7.904;2023-07-13T07:10:33;98326.78;;;24.66;37.81
46392;BME280;32098;49.448;7.904;2023-07-13T07:13:01;98320.09;;;24.97;36.16
46392;BME280;32098;49.448;7.904;2023-07-13T07:15:28;98317.19;;;24.94;36.96
46392;BME280;32098;49.448;7.904;2023-07-13T07:17:54;98323.56;;;24.47;37.58
46392;BME280;32098;49.448;7.904;2023-07-13T07:20:21;98322.22;;;24.35;37.41
46392;BME280;32098;49.448;7.904;2023-07-13T07:22:48;98317.47;;;24.50;36.90
46392;BME280;32098;49.448;7.904;2023-07-13T07:25:15;98331.00;;;24.89;37.01
46392;BME280;32098;49.448;7.904;2023-07-13T07:27:42;98338.28;;;25.28;36.72
46392;BME280;32098;49.448;7.904;2023-07-13T07:30:12;98323.97;;;25.48;36.44
46392;BME280;32098;49.448;7.904;2023-07-13T07:32:41;98329.25;;;25.62;36.40
46392;BME280;32098;49.448;7.904;2023-07-13T07:35:23;98330.19;;;25.83;34.64
46392;BME280;32098;49.448;7.904;2023-07-13T07:37:49;98330.63;;;25.93;34.13
46392;BME280;32098;49.448;7.904;2023-07-13T07:40:17;98331.06;;;26.04;33.66
46392;BME280;32098;49.448;7.904;2023-07-13T07:42:47;98333.56;;;26.26;33.89
46392;BME280;32098;49.448;7.904;2023-07-13T07:45:14;98333.44;;;26.52;33.16
46392;BME280;32098;49.448;7.904;2023-07-13T07:47:40;98343.50;;;26.68;33.18
46392;BME280;32098;49.448;7.904;2023-07-13T07:50:08;98334.13;;;26.78;32.84
46392;BME280;32098;49.448;7.904;2023-07-13T07:52:35;98322.69;;;26.97;33.01
46392;BME280;32098;49.448;7.904;2023-07-13T07:55:04;98328.50;;;27.16;31.48
46392;BME280;32098;49.448;7.904;2023-07-13T07:57:34;98324.97;;;27.15;31.94
46392;BME280;32098;49.448;7.904;2023-07-13T08:00:04;98324.25;;;27.06;31.21
46392;BME280;32098;49.448;7.904;2023-07-13T08:02:39;98333.56;;;26.84;32.31
46392;BME280;32098;49.448;7.904;2023-07-13T08:05:27;98332.34;;;26.73;32.50
46392;BME280;32098;49.448;7.904;2023-07-13T08:07:56;98332.47;;;26.77;32.75
46392;BME280;32098;49.448;7.904;2023-07-13T08:10:23;98329.44;;;26.78;32.65
46392;BME280;32098;49.448;7.904;2023-07-13T08:12:49;98319.94;;;26.97;31.76
46392;BME280;32098;49.448;7.904;2023-07-13T08:15:19;98324.25;;;27.06;31.56
46392;BME280;32098;49.448;7.904;2023-07-13T08:17:48;98318.47;;;27.20;31.15
46392;BME280;32098;49.448;7.904;2023-07-13T08:20:16;98320.19;;;27.24;30.98
46392;BME280;32098;49.448;7.904;2023-07-13T08:22:42;98322.13;;;27.44;31.33
46392;BME280;32098;49.448;7.904;2023-07-13T08:25:09;98323.03;;;27.16;31.30
46392;BME280;32098;49.448;7.904;2023-07-13T08:27:36;98304.75;;;26.99;32.11
46392;BME280;32098;49.448;7.904;2023-07-13T08:30:02;98311.94;;;26.62;31.77
46392;BME280;32098;49.448;7.904;2023-07-13T08:32:29;98321.69;;;26.22;33.73
46392;BME280;32098;49.448;7.904;2023-07-13T08:34:56;98324.38;;;26.31;33.70
46392;BME280;32098;49.448;7.904;2023-07-13T08:37:22;98321.03;;;26.25;32.76
46392;BME280;32098;49.448;7.904;2023-07-13T08:39:49;98320.84;;;26.30;33.49
46392;BME280;32098;49.448;7.904;2023-07-13T08:42:42;98313.44;;;26.51;32.72
46392;BME280;32098;49.448;7.904;2023-07-13T08:45:24;98318.16;;;27.01;32.95
46392;BME280;32098;49.448;7.904;2023-07-13T08:48:01;98320.50;;;27.11;32.53
46392;BME280;32098;49.448;7.904;2023-07-13T08:50:33;98307.50;;;27.40;31.55
46392;BME280;32098;49.448;7.904;2023-07-13T08:53:20;98308.84;;;27.79;32.21
46392;BME280;32098;49.448;7.904;2023-07-13T08:55:48;98312.38;;;27.68;30.77
46392;BME280;32098;49.448;7.904;2023-07-13T08:58:18;98315.84;;;27.44;30.71
46392;BME280;32098;49.448;7.904;2023-07-13T09:01:13;98316.34;;;27.05;31.70
46392;BME280;32098;49.448;7.904;2023-07-13T09:03:50;98324.41;;;26.51;32.34
46392;BME280;32098;49.448;7.904;2023-07-13T09:06:31;98309.75;;;26.18;32.92
46392;BME280;32098;49.448;7.904;2023-07-13T09:09:10;98311.16;;;26.33;33.34
46392;BME280;32098;49.448;7.904;2023-07-13T09:11:50;98314.19;;;26.40;33.05
46392;BME280;32098;49.448;7.904;2023-07-13T09:17:20;98310.13;;;26.66;32.67
46392;BME280;32098;49.448;7.904;2023-07-13T09:19:54;98314.03;;;26.65;33.19
46392;BME280;32098;49.448;7.904;2023-07-13T09:22:24;98314.94;;;26.78;32.33
46392;BME280;32098;49.448;7.904;2023-07-13T09:25:01;98320.53;;;26.81;31.79
46392;BME280;32098;49.448;7.904;2023-07-13T09:27:33;98326.63;;;27.08;31.71
46392;BME280;32098;49.448;7.904;2023-07-13T09:30:30;98306.38;;;27.21;31.50
46392;BME280;32098;49.448;7.904;2023-07-13T09:32:59;98314.38;;;27.26;31.16
46392;BME280;32098;49.448;7.904;2023-07-13T09:35:27;98307.38;;;27.37;30.21
46392;BME280;32098;49.448;7.904;2023-07-13T09:38:21;98314.66;;;27.12;31.11
46392;BME280;32098;49.448;7.904;2023-07-13T09:40:59;98314.47;;;26.97;31.39
46392;BME280;32098;49.448;7.904;2023-07-13T09:43:26;98311.66;;;26.84;30.43
46392;BME280;32098;49.448;7.904;2023-07-13T09:45:55;98322.97;;;26.74;31.33
46392;BME280;32098;49.448;7.904;2023-07-13T09:48:22;98324.75;;;26.50;31.04
46392;BME280;32098;49.448;7.904;2023-07-13T09:50:54;98325.13;;;26.40;32.41
46392;BME280;32098;49.448;7.904;2023-07-13T09:53:22;98329.75;;;26.10;31.79
46392;BME280;32098;49.448;7.904;2023-07-13T09:55:49;98330.19;;;25.83;32.26
46392;BME280;32098;49.448;7.904;2023-07-13T09:58:24;98326.81;;;25.77;32.79
46392;BME280;32098;49.448;7.904;2023-07-13T10:01:09;98316.91;;;26.02;33.45
46392;BME280;32098;49.448;7.904;2023-07-13T10:03:36;98317.63;;;26.28;33.61
46392;BME280;32098;49.448;7.904;2023-07-13T10:06:12;98318.38;;;26.37;31.99
46392;BME280;32098;49.448;7.904;2023-07-13T10:08:39;98320.63;;;26.64;32.55
46392;BME280;32098;49.448;7.904;2023-07-13T10:11:28;98332.75;;;26.63;31.22
46392;BME280;32098;49.448;7.904;2023-07-13T10:14:02;98327.50;;;26.50;31.34
46392;BME280;32098;49.448;7.904;2023-07-13T10:16:32;98315.91;;;26.73;31.50
46392;BME280;32098;49.448;7.904;2023-07-13T10:19:11;98315.16;;;26.94;30.81
46392;BME280;32098;49.448;7.904;2023-07-13T10:21:47;98325.44;;;27.17;30.09
46392;BME280;32098;49.448;7.904;2023-07-13T10:24:25;98315.63;;;27.49;30.38
46392;BME280;32098;49.448;7.904;2023-07-13T10:27:03;98315.78;;;27.65;29.04
46392;BME280;32098;49.448;7.904;2023-07-13T10:29:36;98310.41;;;27.56;29.66
46392;BME280;32098;49.448;7.904;2023-07-13T10:32:09;98317.28;;;27.09;29.70
46392;BME280;32098;49.448;7.904;2023-07-13T10:34:37;98323.97;;;26.78;30.97
46392;BME280;32098;49.448;7.904;2023-07-13T10:37:05;98340.44;;;26.41;30.52
46392;BME280;32098;49.448;7.904;2023-07-13T10:39:34;98325.03;;;26.28;31.08
46392;BME280;32098;49.448;7.904;2023-07-13T10:42:06;98328.09;;;26.26;31.44
46392;BME280;32098;49.448;7.904;2023-07-13T10:44:41;98325.28;;;26.43;31.59
46392;BME280;32098;49.448;7.904;2023-07-13T10:47:12;98323.97;;;26.70;30.78
46392;BME280;32098;49.448;7.904;2023-07-13T10:49:41;98328.56;;;26.87;30.40
46392;BME280;32098;49.448;7.904;2023-07-13T10:52:41;98317.25;;;27.29;30.51
46392;BME280;32098;49.448;7.904;2023-07-13T10:58:13;98310.53;;;27.72;29.79
46392;BME280;32098;49.448;7.904;2023-07-13T11:03:17;98321.13;;;27.49;30.30
46392;BME280;32098;49.448;7.904;2023-07-13T11:05:49;98319.78;;;27.14;30.16
46392;BME280;32098;49.448;7.904;2023-07-13T11:08:33;98316.31;;;26.84;30.72
46392;BME280;32098;49.448;7.904;2023-07-13T11:11:03;98328.03;;;25.97;30.45
46392;BME280;32098;49.448;7.904;2023-07-13T11:13:37;98325.66;;;25.87;30.58
46392;BME280;32098;49.448;7.904;2023-07-13T11:16:36;98317.50;;;25.61;32.52
46392;BME280;32098;49.448;7.904;2023-07-13T11:21:31;98324.63;;;25.28;31.31
46392;BME280;32098;49.448;7.904;2023-07-13T11:24:04;98325.09;;;25.21;31.45
46392;BME280;32098;49.448;7.904;2023-07-13T11:26:52;98313.84;;;25.14;32.12
46392;BME280;32098;49.448;7.904;2023-07-13T11:31:59;98324.13;;;25.00;32.90
46392;BME280;32098;49.448;7.904;2023-07-13T11:34:34;98316.41;;;25.19;32.96
46392;BME280;32098;49.448;7.904;2023-07-13T11:37:02;98312.38;;;25.34;32.68
46392;BME280;32098;49.448;7.904;2023-07-13T11:39:35;98312.56;;;25.03;32.48
46392;BME280;32098;49.448;7.904;2023-07-13T11:42:07;98318.66;;;25.00;32.82
46392;BME280;32098;49.448;7.904;2023-07-13T11:44:42;98310.00;;;25.15;33.60
46392;BME280;32098;49.448;7.904;2023-07-13T11:47:30;98319.47;;;25.09;33.18
46392;BME280;32098;49.448;7.904;2023-07-13T11:49:57;98312.03;;;24.84;32.82
46392;BME280;32098;49.448;7.904;2023-07-13T11:52:33;98317.66;;;24.96;33.01
46392;BME280;32098;49.448;7.904;2023-07-13T11:55:01;98311.78;;;25.03;32.97
46392;BME280;32098;49.448;7.904;2023-07-13T11:57:31;98321.38;;;25.00;32.94
46392;BME280;32098;49.448;7.904;2023-07-13T12:00:25;98326.00;;;24.74;32.17
46392;BME280;32098;49.448;7.904;2023-07-13T12:02:54;98319.25;;;24.63;32.43
46392;BME280;32098;49.448;7.904;2023-07-13T12:05:22;98312.50;;;24.86;32.96
46392;BME280;32098;49.448;7.904;2023-07-13T12:07:49;98326.63;;;24.54;32.78
46392;BME280;32098;49.448;7.904;2023-07-13T12:10:27;98328.31;;;24.32;33.33
46392;BME280;32098;49.448;7.904;2023-07-13T12:13:05;98323.81;;;24.28;33.20
46392;BME280;32098;49.448;7.904;2023-07-13T12:18:00;98323.06;;;24.45;33.11
46392;BME280;32098;49.448;7.904;2023-07-13T12:20:34;98323.59;;;24.55;33.28
46392;BME280;32098;49.448;7.904;2023-07-13T12:23:06;98315.69;;;24.54;32.04
46392;BME280;32098;49.448;7.904;2023-07-13T12:25:35;98319.09;;;24.68;32.31
46392;BME280;32098;49.448;7.904;2023-07-13T12:28:28;98317.03;;;24.82;32.25
46392;BME280;32098;49.448;7.904;2023-07-13T12:31:08;98321.97;;;24.54;32.31
46392;BME280;32098;49.448;7.904;2023-07-13T12:33:47;98315.09;;;24.91;32.63
46392;BME280;32098;49.448;7.904;2023-07-13T12:36:13;98291.00;;;24.93;32.22
46392;BME280;32098;49.448;7.904;2023-07-13T12:38:40;98315.63;;;25.10;32.27
46392;BME280;32098;49.448;7.904;2023-07-13T12:41:08;98285.16;;;24.52;32.62
46392;BME280;32098;49.448;7.904;2023-07-13T12:43:36;98322.78;;;24.55;33.02
46392;BME280;32098;49.448;7.904;2023-07-13T12:46:20;98328.34;;;24.41;33.31
46392;BME280;32098;49.448;7.904;2023-07-13T12:48:50;98328.16;;;24.38;33.83
46392;BME280;32098;49.448;7.904;2023-07-13T12:51:34;98329.34;;;24.45;34.06
46392;BME280;32098;49.448;7.904;2023-07-13T12:54:15;98336.50;;;24.32;33.96
46392;BME280;32098;49.448;7.904;2023-07-13T12:56:43;98330.56;;;24.30;34.16
46392;BME280;32098;49.448;7.904;2023-07-13T12:59:17;98342.91;;;24.36;34.23
46392;BME280;32098;49.448;7.904;2023-07-13T13:01:46;98335.88;;;24.35;34.29
46392;BME280;32098;49.448;7.904;2023-07-13T13:04:16;98319.13;;;24.28;33.89
46392;BME280;32098;49.448;7.904;2023-07-13T13:06:43;98328.16;;;24.38;34.16
46392;BME280;32098;49.448;7.904;2023-07-13T13:09:15;98327.91;;;24.48;33.70
46392;BME280;32098;49.448;7.904;2023-07-13T13:11:42;98326.38;;;24.33;34.01
46392;BME280;32098;49.448;7.904;2023-07-13T13:14:08;98334.81;;;24.45;34.41
46392;BME280;32098;49.448;7.904;2023-07-13T13:16:49;98330.09;;;24.37;34.12
46392;BME280;32098;49.448;7.904;2023-07-13T13:19:18;98337.69;;;24.40;33.32
46392;BME280;32098;49.448;7.904;2023-07-13T13:21:46;98342.66;;;24.47;33.14
46392;BME280;32098;49.448;7.904;2023-07-13T13:24:21;98338.38;;;24.71;33.03
46392;BME280;32098;49.448;7.904;2023-07-13T13:26:49;98332.94;;;24.80;32.64
46392;BME280;32098;49.448;7.904;2023-07-13T13:29:21;98320.41;;;24.96;32.53